sensor_id;sensor_type;location;lat;lon;timestamp;pressure;altitude;pressure_sealevel;temperature;humidity
19526;BME280;9907;42.676;26.348;2024-02-16T00:00:17;99244.94;;;8.42;65.92
19526;BME280;9907;42.676;26.348;2024-02-16T00:02:43;99266.25;;;8.53;65.90
19526;BME280;9907;42.676;26.348;2024-02-16T00:05:09;99260.44;;;8.48;65.19
19526;BME280;9907;42.676;26.348;2024-02-16T00:07:37;99258.72;;;8.47;64.65
19526;BME280;9907;42.676;26.348;2024-02-16T00:10:03;99268.91;;;8.53;64.50
19526;BME280;9907;42.676;26.348;2024-02-16T00:12:33;99255.94;;;8.49;65.20
19526;BME280;9907;42.676;26.348;2024-02-16T00:14:59;99253.66;;;8.55;65.16
19526;BME280;9907;42.676;26.348;2024-02-16T00:17:25;99264.56;;;8.52;65.04
19526;BME280;9907;42.676;26.348;2024-02-16T00:19:57;99258.47;;;8.50;65.13
19526;BME280;9907;42.676;26.348;2024-02-16T00:22:23;99269.88;;;8.52;65.56
19526;BME280;9907;42.676;26.348;2024-02-16T00:24:48;99282.69;;;8.47;65.17
19526;BME280;9907;42.676;26.348;2024-02-16T00:27:14;99280.97;;;8.46;64.60
19526;BME280;9907;42.676;26.348;2024-02-16T00:29:40;99279.78;;;8.50;64.18
19526;BME280;9907;42.676;26.348;2024-02-16T00:32:07;99275.44;;;8.49;64.81
19526;BME280;9907;42.676;26.348;2024-02-16T00:34:36;99276.66;;;8.45;65.03
19526;BME280;9907;42.676;26.348;2024-02-16T00:37:02;99287.28;;;8.45;66.16
19526;BME280;9907;42.676;26.348;2024-02-16T00:39:29;99284.97;;;8.41;66.62
19526;BME280;9907;42.676;26.348;2024-02-16T00:41:54;99295.00;;;8.37;66.97
19526;BME280;9907;42.676;26.348;2024-02-16T00:44:20;99276.63;;;8.34;67.22
19526;BME280;9907;42.676;26.348;2024-02-16T00:46:45;99291.63;;;8.35;67.00
19526;BME280;9907;42.676;26.348;2024-02-16T00:49:11;99296.97;;;8.35;65.96
19526;BME280;9907;42.676;26.348;2024-02-16T00:51:37;99290.91;;;8.44;65.55
19526;BME280;9907;42.676;26.348;2024-02-16T00:54:03;99286.31;;;8.46;64.67
19526;BME280;9907;42.676;26.348;2024-02-16T00:56:30;99288.75;;;8.49;64.63
19526;BME280;9907;42.676;26.348;2024-02-16T00:58:59;99291.88;;;8.54;63.91
19526;BME280;9907;42.676;26.348;2024-02-16T01:01:24;99274.69;;;8.47;64.83
19526;BME280;9907;42.676;26.348;2024-02-16T01:03:52;99281.47;;;8.51;64.99
19526;BME280;9907;42.676;26.348;2024-02-16T01:06:18;99296.28;;;8.66;62.95
19526;BME280;9907;42.676;26.348;2024-02-16T01:08:44;99282.47;;;8.61;63.30
19526;BME280;9907;42.676;26.348;2024-02-16T01:11:10;99263.34;;;8.56;63.81
19526;BME280;9907;42.676;26.348;2024-02-16T01:13:35;99255.47;;;8.55;64.04
19526;BME280;9907;42.676;26.348;2024-02-16T01:16:02;99267.94;;;8.54;64.68
19526;BME280;9907;42.676;26.348;2024-02-16T01:18:29;99255.72;;;8.52;64.41
19526;BME280;9907;42.676;26.348;2024-02-16T01:20:55;99254.63;;;8.54;64.36
19526;BME280;9907;42.676;26.348;2024-02-16T01:23:22;99279.78;;;8.50;64.46
19526;BME280;9907;42.676;26.348;2024-02-16T01:25:47;99265.25;;;8.54;64.33
19526;BME280;9907;42.676;26.348;2024-02-16T01:28:13;99273.25;;;8.54;64.46
19526;BME280;9907;42.676;26.348;2024-02-16T01:30:39;99265.50;;;8.51;63.82
19526;BME280;9907;42.676;26.348;2024-02-16T01:33:05;99259.34;;;8.51;64.56
19526;BME280;9907;42.676;26.348;2024-02-16T01:35:36;99276.50;;;8.47;64.35
19526;BME280;9907;42.676;26.348;2024-02-16T01:38:02;99278.09;;;8.38;65.00
19526;BME280;9907;42.676;26.348;2024-02-16T01:40:28;99255.34;;;8.45;63.92
19526;BME280;9907;42.676;26.348;2024-02-16T01:42:54;99253.16;;;8.50;64.25
19526;BME280;9907;42.676;26.348;2024-02-16T01:45:21;99257.25;;;8.43;64.90
19526;BME280;9907;42.676;26.348;2024-02-16T01:47:50;99260.31;;;8.39;64.80
19526;BME280;9907;42.676;26.348;2024-02-16T01:50:17;99257.84;;;8.36;64.81
19526;BME280;9907;42.676;26.348;2024-02-16T01:52:47;99238.00;;;8.28;65.33
19526;BME280;9907;42.676;26.348;2024-02-16T01:55:15;99256.53;;;8.30;65.23
19526;BME280;9907;42.676;26.348;2024-02-16T01:57:45;99241.78;;;8.37;65.30
19526;BME280;9907;42.676;26.348;2024-02-16T02:00:11;99244.94;;;8.42;64.99
19526;BME280;9907;42.676;26.348;2024-02-16T02:02:40;99228.47;;;8.37;64.68
19526;BME280;9907;42.676;26.348;2024-02-16T02:05:05;99227.13;;;8.43;64.80
19526;BME280;9907;42.676;26.348;2024-02-16T02:07:31;99232.09;;;8.36;65.54
19526;BME280;9907;42.676;26.348;2024-02-16T02:09:56;99210.69;;;8.38;65.30
19526;BME280;9907;42.676;26.348;2024-02-16T02:12:22;99210.19;;;8.32;64.98
19526;BME280;9907;42.676;26.348;2024-02-16T02:14:49;99206.31;;;8.37;65.20
19526;BME280;9907;42.676;26.348;2024-02-16T02:17:15;99208.38;;;8.33;65.29
19526;BME280;9907;42.676;26.348;2024-02-16T02:19:41;99205.31;;;8.26;65.64
19526;BME280;9907;42.676;26.348;2024-02-16T02:22:19;99250.91;;;8.22;65.41
19526;BME280;9907;42.676;26.348;2024-02-16T02:24:46;99236.41;;;8.26;65.33
19526;BME280;9907;42.676;26.348;2024-02-16T02:27:12;99228.16;;;8.18;65.69
19526;BME280;9907;42.676;26.348;2024-02-16T02:29:39;99232.28;;;8.22;65.90
19526;BME280;9907;42.676;26.348;2024-02-16T02:32:05;99233.81;;;8.13;66.00
19526;BME280;9907;42.676;26.348;2024-02-16T02:34:30;99235.75;;;8.11;66.40
19526;BME280;9907;42.676;26.348;2024-02-16T02:36:56;99227.88;;;8.10;65.84
19526;BME280;9907;42.676;26.348;2024-02-16T02:39:22;99238.31;;;8.13;66.63
19526;BME280;9907;42.676;26.348;2024-02-16T02:41:47;99236.97;;;8.18;66.04
19526;BME280;9907;42.676;26.348;2024-02-16T02:44:13;99224.03;;;8.14;65.84
19526;BME280;9907;42.676;26.348;2024-02-16T02:46:39;99240.75;;;8.16;66.00
19526;BME280;9907;42.676;26.348;2024-02-16T02:49:05;99243.44;;;8.27;65.34
19526;BME280;9907;42.676;26.348;2024-02-16T02:51:30;99255.28;;;8.23;64.99
19526;BME280;9907;42.676;26.348;2024-02-16T02:53:56;99253.31;;;8.25;65.75
19526;BME280;9907;42.676;26.348;2024-02-16T02:56:21;99264.31;;;8.20;65.80
19526;BME280;9907;42.676;26.348;2024-02-16T02:58:47;99258.50;;;8.15;65.57
19526;BME280;9907;42.676;26.348;2024-02-16T03:01:14;99265.75;;;8.13;66.27
19526;BME280;9907;42.676;26.348;2024-02-16T03:03:40;99263.47;;;8.09;66.61
19526;BME280;9907;42.676;26.348;2024-02-16T03:06:07;99276.28;;;8.15;66.27
19526;BME280;9907;42.676;26.348;2024-02-16T03:08:33;99263.22;;;8.12;65.75
19526;BME280;9907;42.676;26.348;2024-02-16T03:10:58;99281.84;;;8.12;65.98
19526;BME280;9907;42.676;26.348;2024-02-16T03:13:26;99277.47;;;8.11;65.98
19526;BME280;9907;42.676;26.348;2024-02-16T03:15:51;99267.94;;;8.08;65.42
19526;BME280;9907;42.676;26.348;2024-02-16T03:18:18;99255.25;;;8.12;65.85
19526;BME280;9907;42.676;26.348;2024-02-16T03:20:43;99269.00;;;8.06;65.94
19526;BME280;9907;42.676;26.348;2024-02-16T03:23:11;99293.44;;;8.11;66.39
19526;BME280;9907;42.676;26.348;2024-02-16T03:25:36;99274.72;;;8.12;66.15
19526;BME280;9907;42.676;26.348;2024-02-16T03:28:02;99277.72;;;8.08;66.84
19526;BME280;9907;42.676;26.348;2024-02-16T03:30:27;99272.78;;;8.14;65.51
19526;BME280;9907;42.676;26.348;2024-02-16T03:32:53;99274.34;;;8.17;65.88
19526;BME280;9907;42.676;26.348;2024-02-16T03:35:18;99274.59;;;8.14;65.56
19526;BME280;9907;42.676;26.348;2024-02-16T03:37:44;99272.63;;;8.05;65.54
19526;BME280;9907;42.676;26.348;2024-02-16T03:40:10;99288.09;;;8.00;66.33
19526;BME280;9907;42.676;26.348;2024-02-16T03:42:38;99285.09;;;8.04;66.49
19526;BME280;9907;42.676;26.348;2024-02-16T03:45:05;99274.81;;;8.11;65.27
19526;BME280;9907;42.676;26.348;2024-02-16T03:47:30;99284.03;;;8.18;63.85
19526;BME280;9907;42.676;26.348;2024-02-16T03:49:56;99250.63;;;8.14;64.49
19526;BME280;9907;42.676;26.348;2024-02-16T03:52:21;99281.03;;;8.22;63.77
19526;BME280;9907;42.676;26.348;2024-02-16T03:54:47;99287.66;;;8.17;64.16
19526;BME280;9907;42.676;26.348;2024-02-16T03:57:16;99284.41;;;8.24;63.64
19526;BME280;9907;42.676;26.348;2024-02-16T03:59:45;99299.03;;;8.19;63.12
19526;BME280;9907;42.676;26.348;2024-02-16T04:02:11;99288.97;;;8.35;61.79
19526;BME280;9907;42.676;26.348;2024-02-16T04:04:41;99295.50;;;8.31;61.71
19526;BME280;9907;42.676;26.348;2024-02-16T04:07:06;99271.72;;;8.28;62.41
19526;BME280;9907;42.676;26.348;2024-02-16T04:09:33;99295.06;;;8.24;62.69
19526;BME280;9907;42.676;26.348;2024-02-16T04:12:00;99284.03;;;8.18;63.05
19526;BME280;9907;42.676;26.348;2024-02-16T04:14:25;99289.00;;;8.22;63.23
19526;BME280;9907;42.676;26.348;2024-02-16T04:16:51;99304.81;;;8.37;61.22
19526;BME280;9907;42.676;26.348;2024-02-16T04:19:17;99293.31;;;8.36;61.47
19526;BME280;9907;42.676;26.348;2024-02-16T04:21:42;99300.28;;;8.26;62.62
19526;BME280;9907;42.676;26.348;2024-02-16T04:24:08;99311.88;;;8.25;62.73
19526;BME280;9907;42.676;26.348;2024-02-16T04:26:33;99306.13;;;8.31;61.79
19526;BME280;9907;42.676;26.348;2024-02-16T04:28:59;99307.31;;;8.27;62.02
19526;BME280;9907;42.676;26.348;2024-02-16T04:31:24;99311.03;;;8.24;62.20
19526;BME280;9907;42.676;26.348;2024-02-16T04:33:50;99314.44;;;8.26;61.93
19526;BME280;9907;42.676;26.348;2024-02-16T04:36:16;99314.66;;;8.23;62.18
19526;BME280;9907;42.676;26.348;2024-02-16T04:38:41;99330.50;;;8.25;62.12
19526;BME280;9907;42.676;26.348;2024-02-16T04:41:08;99307.13;;;8.17;62.07
19526;BME280;9907;42.676;26.348;2024-02-16T04:43:34;99308.47;;;8.12;63.17
19526;BME280;9907;42.676;26.348;2024-02-16T04:46:01;99307.94;;;8.07;63.61
19526;BME280;9907;42.676;26.348;2024-02-16T04:48:26;99312.31;;;8.08;62.95
19526;BME280;9907;42.676;26.348;2024-02-16T04:50:52;99310.22;;;8.00;64.00
19526;BME280;9907;42.676;26.348;2024-02-16T04:53:17;99308.66;;;7.98;63.89
19526;BME280;9907;42.676;26.348;2024-02-16T04:55:43;99306.59;;;8.01;63.66
19526;BME280;9907;42.676;26.348;2024-02-16T04:58:08;99312.50;;;7.94;64.09
19526;BME280;9907;42.676;26.348;2024-02-16T05:00:38;99333.06;;;8.03;63.58
19526;BME280;9907;42.676;26.348;2024-02-16T05:03:06;99324.38;;;8.01;63.09
19526;BME280;9907;42.676;26.348;2024-02-16T05:05:32;99327.41;;;8.07;63.19
19526;BME280;9907;42.676;26.348;2024-02-16T05:07:57;99311.06;;;8.01;63.31
19526;BME280;9907;42.676;26.348;2024-02-16T05:10:23;99322.66;;;8.00;63.65
19526;BME280;9907;42.676;26.348;2024-02-16T05:12:48;99324.38;;;8.01;63.38
19526;BME280;9907;42.676;26.348;2024-02-16T05:15:14;99308.66;;;7.98;63.43
19526;BME280;9907;42.676;26.348;2024-02-16T05:17:40;99303.09;;;8.01;63.11
19526;BME280;9907;42.676;26.348;2024-02-16T05:20:12;99325.84;;;8.05;62.97
19526;BME280;9907;42.676;26.348;2024-02-16T05:22:42;99336.25;;;8.08;62.89
19526;BME280;9907;42.676;26.348;2024-02-16T05:25:09;99301.91;;;8.05;63.20
19526;BME280;9907;42.676;26.348;2024-02-16T05:27:35;99318.34;;;8.10;62.98
19526;BME280;9907;42.676;26.348;2024-02-16T05:30:01;99300.44;;;8.01;62.85
19526;BME280;9907;42.676;26.348;2024-02-16T05:32:28;99332.97;;;8.04;62.98
19526;BME280;9907;42.676;26.348;2024-02-16T05:34:55;99327.88;;;8.01;63.02
19526;BME280;9907;42.676;26.348;2024-02-16T05:37:20;99321.19;;;7.96;63.94
19526;BME280;9907;42.676;26.348;2024-02-16T05:39:48;99320.56;;;7.92;63.57
19526;BME280;9907;42.676;26.348;2024-02-16T05:42:22;99323.38;;;7.91;63.90
19526;BME280;9907;42.676;26.348;2024-02-16T05:44:48;99312.94;;;7.88;64.00
19526;BME280;9907;42.676;26.348;2024-02-16T05:47:15;99319.00;;;7.90;63.82
19526;BME280;9907;42.676;26.348;2024-02-16T05:49:41;99330.59;;;7.89;63.93
19526;BME280;9907;42.676;26.348;2024-02-16T05:52:06;99334.00;;;7.91;63.86
19526;BME280;9907;42.676;26.348;2024-02-16T05:54:48;99321.91;;;7.87;64.15
19526;BME280;9907;42.676;26.348;2024-02-16T05:57:17;99345.06;;;7.84;64.33
19526;BME280;9907;42.676;26.348;2024-02-16T05:59:43;99349.22;;;7.89;63.93
19526;BME280;9907;42.676;26.348;2024-02-16T06:02:10;99348.50;;;7.87;64.55
19526;BME280;9907;42.676;26.348;2024-02-16T06:04:36;99362.50;;;7.89;63.92
19526;BME280;9907;42.676;26.348;2024-02-16T06:07:02;99372.69;;;7.95;63.85
19526;BME280;9907;42.676;26.348;2024-02-16T06:09:28;99367.38;;;7.95;63.55
19526;BME280;9907;42.676;26.348;2024-02-16T06:12:02;99391.50;;;8.04;63.87
19526;BME280;9907;42.676;26.348;2024-02-16T06:14:32;99386.81;;;8.08;63.42
19526;BME280;9907;42.676;26.348;2024-02-16T06:16:58;99393.69;;;8.10;63.27
19526;BME280;9907;42.676;26.348;2024-02-16T06:19:24;99398.41;;;8.07;63.95
19526;BME280;9907;42.676;26.348;2024-02-16T06:21:50;99379.91;;;8.05;63.29
19526;BME280;9907;42.676;26.348;2024-02-16T06:24:15;99384.88;;;8.10;63.36
19526;BME280;9907;42.676;26.348;2024-02-16T06:26:40;99388.16;;;8.13;63.33
19526;BME280;9907;42.676;26.348;2024-02-16T06:29:06;99400.50;;;8.14;62.92
19526;BME280;9907;42.676;26.348;2024-02-16T06:31:32;99420.22;;;8.12;62.78
19526;BME280;9907;42.676;26.348;2024-02-16T06:33:57;99433.22;;;8.04;63.57
19526;BME280;9907;42.676;26.348;2024-02-16T06:36:23;99424.91;;;8.08;63.78
19526;BME280;9907;42.676;26.348;2024-02-16T06:38:48;99428.91;;;8.14;63.82
19526;BME280;9907;42.676;26.348;2024-02-16T06:41:14;99440.31;;;8.16;62.95
19526;BME280;9907;42.676;26.348;2024-02-16T06:43:39;99430.00;;;8.11;63.88
19526;BME280;9907;42.676;26.348;2024-02-16T06:46:05;99446.34;;;8.18;63.34
19526;BME280;9907;42.676;26.348;2024-02-16T06:48:30;99436.00;;;8.26;63.68
19526;BME280;9907;42.676;26.348;2024-02-16T06:50:56;99434.13;;;8.15;63.57
19526;BME280;9907;42.676;26.348;2024-02-16T06:53:21;99440.81;;;8.21;63.17
19526;BME280;9907;42.676;26.348;2024-02-16T06:55:47;99430.91;;;8.23;63.12
19526;BME280;9907;42.676;26.348;2024-02-16T06:58:13;99435.56;;;8.32;63.72
19526;BME280;9907;42.676;26.348;2024-02-16T07:00:38;99439.38;;;8.28;62.70
19526;BME280;9907;42.676;26.348;2024-02-16T07:03:07;99442.03;;;8.28;62.57
19526;BME280;9907;42.676;26.348;2024-02-16T07:05:32;99431.09;;;8.32;63.19
19526;BME280;9907;42.676;26.348;2024-02-16T07:07:58;99450.59;;;8.33;63.31
19526;BME280;9907;42.676;26.348;2024-02-16T07:10:24;99462.63;;;8.39;62.48
19526;BME280;9907;42.676;26.348;2024-02-16T07:12:51;99455.88;;;8.46;62.55
19526;BME280;9907;42.676;26.348;2024-02-16T07:15:16;99450.31;;;8.49;62.73
19526;BME280;9907;42.676;26.348;2024-02-16T07:17:42;99450.19;;;8.50;62.53
19526;BME280;9907;42.676;26.348;2024-02-16T07:20:07;99449.72;;;8.56;62.44
19526;BME280;9907;42.676;26.348;2024-02-16T07:22:33;99463.28;;;8.53;61.93
19526;BME280;9907;42.676;26.348;2024-02-16T07:24:59;99429.78;;;8.62;61.82
19526;BME280;9907;42.676;26.348;2024-02-16T07:27:30;99431.38;;;8.64;61.93
19526;BME280;9907;42.676;26.348;2024-02-16T07:29:55;99445.78;;;8.73;62.21
19526;BME280;9907;42.676;26.348;2024-02-16T07:32:21;99450.06;;;8.75;60.94
19526;BME280;9907;42.676;26.348;2024-02-16T07:34:47;99447.59;;;8.72;61.31
19526;BME280;9907;42.676;26.348;2024-02-16T07:37:13;99458.91;;;8.87;62.11
19526;BME280;9907;42.676;26.348;2024-02-16T07:39:39;99481.13;;;9.10;62.68
19526;BME280;9907;42.676;26.348;2024-02-16T07:42:09;99462.97;;;9.04;61.75
19526;BME280;9907;42.676;26.348;2024-02-16T07:44:35;99478.16;;;8.91;61.84
19526;BME280;9907;42.676;26.348;2024-02-16T07:47:01;99479.94;;;9.14;62.43
19526;BME280;9907;42.676;26.348;2024-02-16T07:49:27;99477.16;;;9.15;61.51
19526;BME280;9907;42.676;26.348;2024-02-16T07:51:52;99497.63;;;9.15;62.28
19526;BME280;9907;42.676;26.348;2024-02-16T07:54:18;99486.97;;;9.15;62.71
19526;BME280;9907;42.676;26.348;2024-02-16T07:56:43;99489.41;;;9.18;62.13
19526;BME280;9907;42.676;26.348;2024-02-16T07:59:09;99482.88;;;9.33;62.33
19526;BME280;9907;42.676;26.348;2024-02-16T08:01:34;99478.66;;;9.42;62.10
19526;BME280;9907;42.676;26.348;2024-02-16T08:03:59;99483.41;;;9.38;62.58
19526;BME280;9907;42.676;26.348;2024-02-16T08:06:26;99489.19;;;9.43;62.11
19526;BME280;9907;42.676;26.348;2024-02-16T08:08:52;99482.56;;;9.49;61.63
19526;BME280;9907;42.676;26.348;2024-02-16T08:11:17;99486.44;;;9.56;61.45
19526;BME280;9907;42.676;26.348;2024-02-16T08:13:43;99489.72;;;9.82;60.77
19526;BME280;9907;42.676;26.348;2024-02-16T08:16:08;99498.56;;;9.93;60.08
19526;BME280;9907;42.676;26.348;2024-02-16T08:18:33;99490.31;;;9.96;60.86
19526;BME280;9907;42.676;26.348;2024-02-16T08:21:00;99488.50;;;10.19;60.56
19526;BME280;9907;42.676;26.348;2024-02-16T08:23:25;99498.53;;;10.38;58.85
19526;BME280;9907;42.676;26.348;2024-02-16T08:25:51;99494.25;;;10.46;58.51
19526;BME280;9907;42.676;26.348;2024-02-16T08:28:16;99493.06;;;10.39;59.20
19526;BME280;9907;42.676;26.348;2024-02-16T08:30:42;99490.66;;;10.14;58.63
19526;BME280;9907;42.676;26.348;2024-02-16T08:33:10;99494.91;;;10.05;59.62
19526;BME280;9907;42.676;26.348;2024-02-16T08:35:35;99503.31;;;9.90;59.02
19526;BME280;9907;42.676;26.348;2024-02-16T08:38:01;99466.66;;;10.03;59.35
19526;BME280;9907;42.676;26.348;2024-02-16T08:40:26;99501.09;;;9.95;60.41
19526;BME280;9907;42.676;26.348;2024-02-16T08:42:52;99471.75;;;10.17;59.76
19526;BME280;9907;42.676;26.348;2024-02-16T08:45:17;99489.56;;;10.05;59.07
19526;BME280;9907;42.676;26.348;2024-02-16T08:47:44;99513.13;;;10.11;58.36
19526;BME280;9907;42.676;26.348;2024-02-16T08:50:10;99503.97;;;9.36;60.92
19526;BME280;9907;42.676;26.348;2024-02-16T08:52:36;99499.41;;;9.60;60.54
19526;BME280;9907;42.676;26.348;2024-02-16T08:55:02;99482.06;;;9.77;60.78
19526;BME280;9907;42.676;26.348;2024-02-16T08:57:27;99503.66;;;9.85;60.23
19526;BME280;9907;42.676;26.348;2024-02-16T08:59:53;99500.75;;;9.88;60.31
19526;BME280;9907;42.676;26.348;2024-02-16T09:02:19;99499.53;;;10.14;60.19
19526;BME280;9907;42.676;26.348;2024-02-16T09:04:45;99494.31;;;10.02;59.98
19526;BME280;9907;42.676;26.348;2024-02-16T09:07:11;99511.16;;;10.13;58.81
19526;BME280;9907;42.676;26.348;2024-02-16T09:09:37;99513.97;;;9.78;60.10
19526;BME280;9907;42.676;26.348;2024-02-16T09:12:03;99517.84;;;10.08;59.69
19526;BME280;9907;42.676;26.348;2024-02-16T09:14:28;99503.91;;;10.04;59.25
19526;BME280;9907;42.676;26.348;2024-02-16T09:16:55;99511.28;;;10.34;60.06
19526;BME280;9907;42.676;26.348;2024-02-16T09:19:20;99509.94;;;10.40;59.42
19526;BME280;9907;42.676;26.348;2024-02-16T09:21:46;99508.41;;;10.26;60.28
19526;BME280;9907;42.676;26.348;2024-02-16T09:24:12;99507.06;;;10.20;60.00
19526;BME280;9907;42.676;26.348;2024-02-16T09:26:43;99502.31;;;10.24;59.79
19526;BME280;9907;42.676;26.348;2024-02-16T09:29:11;99506.63;;;10.47;59.24
19526;BME280;9907;42.676;26.348;2024-02-16T09:31:36;99502.28;;;10.35;59.37
19526;BME280;9907;42.676;26.348;2024-02-16T09:34:02;99506.09;;;10.64;60.42
19526;BME280;9907;42.676;26.348;2024-02-16T09:36:28;99500.28;;;10.59;60.33
19526;BME280;9907;42.676;26.348;2024-02-16T09:38:53;99509.31;;;10.47;60.62
19526;BME280;9907;42.676;26.348;2024-02-16T09:41:18;99503.47;;;10.85;60.11
19526;BME280;9907;42.676;26.348;2024-02-16T09:43:44;99508.53;;;10.67;60.31
19526;BME280;9907;42.676;26.348;2024-02-16T09:46:09;99517.31;;;10.47;60.65
19526;BME280;9907;42.676;26.348;2024-02-16T09:48:35;99521.69;;;10.48;61.57
19526;BME280;9907;42.676;26.348;2024-02-16T09:51:01;99509.28;;;10.58;61.35
19526;BME280;9907;42.676;26.348;2024-02-16T09:53:28;99511.22;;;10.67;61.91
19526;BME280;9907;42.676;26.348;2024-02-16T09:55:55;99504.69;;;10.60;61.54
19526;BME280;9907;42.676;26.348;2024-02-16T09:58:21;99509.19;;;10.81;62.49
19526;BME280;9907;42.676;26.348;2024-02-16T10:00:56;99517.06;;;10.93;61.64
19526;BME280;9907;42.676;26.348;2024-02-16T10:03:31;99496.75;;;11.22;61.45
19526;BME280;9907;42.676;26.348;2024-02-16T10:06:07;99514.69;;;10.68;61.69
19526;BME280;9907;42.676;26.348;2024-02-16T10:08:34;99513.34;;;10.73;61.75
19526;BME280;9907;42.676;26.348;2024-02-16T10:11:04;99508.72;;;10.75;61.27
19526;BME280;9907;42.676;26.348;2024-02-16T10:13:33;99506.59;;;10.90;62.83
19526;BME280;9907;42.676;26.348;2024-02-16T10:16:09;99502.19;;;11.00;62.07
19526;BME280;9907;42.676;26.348;2024-02-16T10:18:37;99504.59;;;10.83;61.70
19526;BME280;9907;42.676;26.348;2024-02-16T10:21:03;99494.81;;;10.93;61.40
19526;BME280;9907;42.676;26.348;2024-02-16T10:23:29;99501.78;;;11.05;62.48
19526;BME280;9907;42.676;26.348;2024-02-16T10:25:54;99512.09;;;11.09;61.72
19526;BME280;9907;42.676;26.348;2024-02-16T10:28:20;99503.44;;;11.17;62.34
19526;BME280;9907;42.676;26.348;2024-02-16T10:30:56;99484.91;;;11.46;62.09
19526;BME280;9907;42.676;26.348;2024-02-16T10:33:22;99501.88;;;11.35;61.87
19526;BME280;9907;42.676;26.348;2024-02-16T10:35:50;99506.63;;;11.11;61.76
19526;BME280;9907;42.676;26.348;2024-02-16T10:38:17;99491.44;;;11.32;61.71
19526;BME280;9907;42.676;26.348;2024-02-16T10:40:43;99495.66;;;11.35;61.84
19526;BME280;9907;42.676;26.348;2024-02-16T10:43:12;99482.00;;;11.07;61.22
19526;BME280;9907;42.676;26.348;2024-02-16T10:45:38;99469.28;;;11.00;61.90
19526;BME280;9907;42.676;26.348;2024-02-16T10:48:06;99476.00;;;11.15;62.40
19526;BME280;9907;42.676;26.348;2024-02-16T10:50:33;99467.16;;;11.24;62.29
19526;BME280;9907;42.676;26.348;2024-02-16T10:53:04;99497.94;;;10.98;62.09
19526;BME280;9907;42.676;26.348;2024-02-16T10:55:34;99482.25;;;10.72;62.95
19526;BME280;9907;42.676;26.348;2024-02-16T10:58:00;99466.66;;;10.89;62.59
19526;BME280;9907;42.676;26.348;2024-02-16T11:00:25;99472.38;;;10.84;62.81
19526;BME280;9907;42.676;26.348;2024-02-16T11:02:58;99489.69;;;11.01;62.00
19526;BME280;9907;42.676;26.348;2024-02-16T11:05:34;99485.78;;;10.73;63.70
19526;BME280;9907;42.676;26.348;2024-02-16T11:08:11;99489.72;;;10.58;63.10
19526;BME280;9907;42.676;26.348;2024-02-16T11:10:37;99478.88;;;10.70;64.00
19526;BME280;9907;42.676;26.348;2024-02-16T11:13:03;99476.25;;;10.59;63.85
19526;BME280;9907;42.676;26.348;2024-02-16T11:15:34;99488.94;;;10.13;65.07
19526;BME280;9907;42.676;26.348;2024-02-16T11:18:01;99490.09;;;10.53;64.27
19526;BME280;9907;42.676;26.348;2024-02-16T11:20:27;99482.09;;;10.53;64.55
19526;BME280;9907;42.676;26.348;2024-02-16T11:22:53;99496.41;;;10.63;64.60
19526;BME280;9907;42.676;26.348;2024-02-16T11:25:29;99482.75;;;10.78;64.22
19526;BME280;9907;42.676;26.348;2024-02-16T11:27:55;99495.06;;;10.58;64.42
19526;BME280;9907;42.676;26.348;2024-02-16T11:30:20;99485.31;;;10.14;64.58
19526;BME280;9907;42.676;26.348;2024-02-16T11:32:46;99483.41;;;10.16;65.40
19526;BME280;9907;42.676;26.348;2024-02-16T11:35:12;99478.50;;;10.32;65.33
19526;BME280;9907;42.676;26.348;2024-02-16T11:37:37;99482.59;;;10.47;65.16
19526;BME280;9907;42.676;26.348;2024-02-16T11:40:04;99477.78;;;10.73;64.41
19526;BME280;9907;42.676;26.348;2024-02-16T11:42:33;99459.88;;;10.85;64.54
19526;BME280;9907;42.676;26.348;2024-02-16T11:45:00;99471.34;;;10.64;64.71
19526;BME280;9907;42.676;26.348;2024-02-16T11:47:25;99473.59;;;10.59;64.26
19526;BME280;9907;42.676;26.348;2024-02-16T11:50:05;99476.31;;;10.37;65.02
19526;BME280;9907;42.676;26.348;2024-02-16T11:52:31;99473.63;;;10.48;64.90
19526;BME280;9907;42.676;26.348;2024-02-16T11:54:57;99468.75;;;10.42;64.81
19526;BME280;9907;42.676;26.348;2024-02-16T12:17:23;99474.06;;;9.88;66.90
19526;BME280;9907;42.676;26.348;2024-02-16T12:19:52;99471.50;;;9.98;67.23
19526;BME280;9907;42.676;26.348;2024-02-16T12:22:27;99457.44;;;9.85;67.51
19526;BME280;9907;42.676;26.348;2024-02-16T12:24:54;99488.63;;;9.62;67.45
19526;BME280;9907;42.676;26.348;2024-02-16T12:27:19;99493.06;;;9.28;68.99
19526;BME280;9907;42.676;26.348;2024-02-16T12:29:45;99486.88;;;9.39;69.08
19526;BME280;9907;42.676;26.348;2024-02-16T12:32:10;99470.50;;;9.21;69.81
19526;BME280;9907;42.676;26.348;2024-02-16T12:34:36;99470.19;;;9.70;68.72
19526;BME280;9907;42.676;26.348;2024-02-16T12:37:07;99460.72;;;9.44;68.76
19526;BME280;9907;42.676;26.348;2024-02-16T12:39:40;99492.28;;;9.04;69.78
19526;BME280;9907;42.676;26.348;2024-02-16T12:42:42;99486.56;;;9.65;67.97
19526;BME280;9907;42.676;26.348;2024-02-16T12:45:08;99475.88;;;9.54;68.70
19526;BME280;9907;42.676;26.348;2024-02-16T12:47:55;99469.56;;;9.44;68.89
19526;BME280;9907;42.676;26.348;2024-02-16T12:50:44;99475.63;;;9.79;68.23
19526;BME280;9907;42.676;26.348;2024-02-16T12:53:17;99472.00;;;9.58;67.85
19526;BME280;9907;42.676;26.348;2024-02-16T12:55:43;99478.44;;;9.56;67.96
19526;BME280;9907;42.676;26.348;2024-02-16T12:58:11;99459.41;;;9.83;67.10
19526;BME280;9907;42.676;26.348;2024-02-16T13:00:38;99473.22;;;9.65;68.49
19526;BME280;9907;42.676;26.348;2024-02-16T13:03:03;99480.38;;;9.65;67.49
19526;BME280;9907;42.676;26.348;2024-02-16T13:08:24;99479.28;;;9.45;68.78
19526;BME280;9907;42.676;26.348;2024-02-16T13:10:49;99502.50;;;9.32;68.76
19526;BME280;9907;42.676;26.348;2024-02-16T13:13:15;99478.66;;;9.42;68.04
19526;BME280;9907;42.676;26.348;2024-02-16T13:15:41;99467.53;;;9.59;68.08
19526;BME280;9907;42.676;26.348;2024-02-16T13:18:06;99468.63;;;9.56;67.49
19526;BME280;9907;42.676;26.348;2024-02-16T13:20:33;99488.22;;;9.33;68.90
19526;BME280;9907;42.676;26.348;2024-02-16T13:23:12;99481.38;;;9.07;69.78
19526;BME280;9907;42.676;26.348;2024-02-16T13:26:02;99498.53;;;8.92;70.27
19526;BME280;9907;42.676;26.348;2024-02-16T13:29:01;99490.75;;;9.12;68.80